Time;durP1;ratioP1;P1;durP2;ratioP2;P2;SDS_P1;SDS_P2;PMS_P1;PMS_P2;Temp;Humidity;BMP_temperature;BMP_pressure;BME280_temperature;BME280_humidity;BME280_pressure;Samples;Min_cycle;Max_cycle;Signal;HPM_P1;HPM_P2
2023/07/01 00:01:43;;;;;;;24.17;20.52;;;18.30;99.90;;;18.98;100.00;97489.25;10400730;28;20616;-66
2023/07/01 00:06:47;;;;;;;24.55;21.23;;;18.20;99.90;;;18.96;100.00;97489.22;10400158;28;20241;-66
2023/07/01 00:11:51;;;;;;;22.00;19.70;;;18.20;99.90;;;18.94;100.00;97485.72;10399253;28;20230;-66
2023/07/01 00:16:54;;;;;;;23.77;19.05;;;18.20;99.90;;;18.88;100.00;97489.06;10404053;28;20224;-66
2023/07/01 00:21:59;;;;;;;19.60;17.55;;;18.20;99.90;;;18.88;100.00;97476.13;10399528;28;20238;-66
2023/07/01 00:27:03;;;;;;;17.70;15.95;;;18.10;99.90;;;18.88;100.00;97480.44;10394566;28;20642;-66
2023/07/01 00:32:08;;;;;;;18.92;16.15;;;18.10;99.90;;;18.87;100.00;97473.53;10396584;28;20225;-66
2023/07/01 00:37:13;;;;;;;16.92;15.20;;;18.10;99.90;;;18.82;100.00;97469.97;10401686;28;20222;-66
2023/07/01 00:42:16;;;;;;;17.52;15.27;;;18.10;99.90;;;18.72;100.00;97476.66;10390208;28;20591;-66
2023/07/01 00:47:19;;;;;;;13.60;12.25;;;17.90;99.90;;;18.60;100.00;97471.25;10396610;28;20232;-66
2023/07/01 00:52:24;;;;;;;14.50;12.65;;;17.80;99.90;;;18.46;100.00;97468.41;10395928;28;20620;-66
2023/07/01 00:57:27;;;;;;;13.32;11.80;;;17.60;99.90;;;18.41;100.00;97475.19;10391280;28;20272;-66
2023/07/01 01:02:37;;;;;;;14.00;11.23;;;17.60;99.90;;;18.26;100.00;97473.19;10398211;28;20230;-66
2023/07/01 01:07:50;;;;;;;15.65;11.90;;;17.40;99.90;;;18.14;100.00;97475.50;10400237;28;20232;-66
2023/07/01 01:12:58;;;;;;;13.68;12.25;;;17.30;99.90;;;17.99;100.00;97470.88;10398905;28;20247;-66
2023/07/01 01:18:04;;;;;;;15.13;12.60;;;17.20;99.90;;;17.90;100.00;97473.25;10388240;28;20230;-66
2023/07/01 01:23:13;;;;;;;15.15;11.95;;;17.10;99.90;;;17.72;100.00;97478.88;10390597;28;20228;-66
2023/07/01 01:28:17;;;;;;;13.32;11.55;;;16.90;99.90;;;17.64;100.00;97478.69;10399372;28;20230;-66
2023/07/01 01:33:20;;;;;;;14.80;11.38;;;16.80;99.90;;;17.59;100.00;97477.69;10392142;28;20244;-66
2023/07/01 01:38:30;;;;;;;13.38;12.00;;;16.80;99.90;;;17.55;100.00;97481.94;10396456;28;20711;-66
2023/07/01 01:43:46;;;;;;;13.50;11.48;;;16.70;99.90;;;17.42;100.00;97474.72;10397634;28;20236;-66
2023/07/01 01:48:49;;;;;;;11.90;10.77;;;16.60;99.90;;;17.28;100.00;97477.00;10396690;28;20610;-66
2023/07/01 01:53:53;;;;;;;11.50;10.23;;;16.40;99.90;;;17.16;100.00;97478.38;10399352;28;20241;-66
2023/07/01 01:58:58;;;;;;;13.63;10.38;;;16.30;99.90;;;17.08;100.00;97476.50;10400727;28;20588;-66
2023/07/01 02:04:01;;;;;;;13.43;9.80;;;16.20;99.90;;;17.03;100.00;97472.91;10400854;28;20225;-66
2023/07/01 02:09:05;;;;;;;11.43;9.98;;;16.20;99.90;;;16.91;100.00;97480.31;10392343;28;20225;-67
2023/07/01 02:14:09;;;;;;;12.95;10.73;;;16.10;99.90;;;16.79;100.00;97473.13;10394171;28;20230;-67
2023/07/01 02:19:12;;;;;;;10.98;9.88;;;15.90;99.90;;;16.71;100.00;97466.00;10395836;28;20583;-66
2023/07/01 02:24:15;;;;;;;11.40;10.20;;;15.90;99.90;;;16.67;100.00;97455.59;10399410;28;20576;-66
2023/07/01 02:29:20;;;;;;;11.25;10.05;;;15.80;99.90;;;16.59;100.00;97461.38;10392432;28;20226;-66
2023/07/01 02:34:26;;;;;;;11.85;9.55;;;15.80;99.90;;;16.51;100.00;97457.72;10394952;28;20230;-66
2023/07/01 02:39:29;;;;;;;9.73;8.73;;;15.70;99.90;;;16.50;100.00;97456.84;10396713;28;20244;-68
2023/07/01 02:44:34;;;;;;;13.13;11.73;;;15.70;99.90;;;16.40;100.00;97445.41;10392297;28;20225;-68
2023/07/01 02:49:40;;;;;;;15.65;13.52;;;15.60;99.90;;;16.32;100.00;97458.94;10394262;28;20225;-68
2023/07/01 02:54:43;;;;;;;13.65;12.35;;;15.50;99.90;;;16.23;100.00;97453.53;10398746;28;20235;-68
2023/07/01 02:59:48;;;;;;;48.05;12.63;;;15.50;99.90;;;16.18;100.00;97454.25;10393890;28;20233;-67
2023/07/01 03:04:51;;;;;;;20.42;13.98;;;15.40;99.90;;;16.11;100.00;97452.34;10394042;28;20256;-68
2023/07/01 03:09:55;;;;;;;12.90;11.70;;;15.30;99.90;;;16.08;100.00;97462.56;10398685;28;20336;-68
2023/07/01 03:14:59;;;;;;;13.68;11.30;;;15.30;99.90;;;16.01;100.00;97465.78;10397981;28;20237;-68
2023/07/01 03:20:05;;;;;;;12.95;11.40;;;15.20;99.90;;;15.93;100.00;97475.84;10395561;28;20295;-68
2023/07/01 03:25:10;;;;;;;11.63;10.43;;;15.10;99.90;;;15.91;100.00;97468.91;10406970;28;20701;-68
2023/07/01 03:30:17;;;;;;;11.20;10.10;;;15.10;99.90;;;15.84;100.00;97483.31;10394099;28;20775;-68
2023/07/01 03:35:20;;;;;;;30.50;10.65;;;15.00;99.90;;;15.89;100.00;97480.91;10397980;28;20237;-68
2023/07/01 03:40:23;;;;;;;11.00;9.95;;;15.00;99.90;;;15.71;100.00;97471.78;10400743;28;20233;-68
2023/07/01 03:45:28;;;;;;;10.50;9.40;;;14.90;99.90;;;15.75;100.00;97473.59;10401551;28;20448;-68
2023/07/01 03:50:31;;;;;;;10.95;9.85;;;15.00;99.90;;;15.80;100.00;97470.31;10397898;28;20229;-68
2023/07/01 03:55:34;;;;;;;10.13;9.23;;;14.90;99.90;;;15.77;100.00;97469.38;10403791;28;20240;-68
2023/07/01 04:00:39;;;;;;;10.38;9.32;;;14.90;99.90;;;15.79;100.00;97473.69;10394701;28;20225;-68
2023/07/01 04:05:42;;;;;;;11.77;10.57;;;14.90;99.90;;;15.79;100.00;97460.81;10404663;28;20237;-68
2023/07/01 04:10:45;;;;;;;11.98;10.80;;;14.90;99.90;;;15.70;100.00;97464.00;10396574;28;20226;-68
2023/07/01 04:15:50;;;;;;;12.57;11.10;;;14.80;99.90;;;15.67;100.00;97461.28;10399603;28;20289;-69
2023/07/01 04:20:53;;;;;;;11.23;9.77;;;14.80;99.90;;;15.74;100.00;97466.72;10401411;28;20822;-69
2023/07/01 04:25:56;;;;;;;9.77;8.77;;;14.80;99.90;;;15.68;100.00;97465.63;10399646;28;20226;-68
2023/07/01 04:31:01;;;;;;;10.52;9.43;;;14.80;99.90;;;15.69;100.00;97468.28;10393408;28;20225;-68
2023/07/01 04:36:04;;;;;;;10.27;8.15;;;14.80;99.90;;;15.77;100.00;97456.50;10401024;28;20322;-68
2023/07/01 04:41:07;;;;;;;9.45;8.43;;;15.00;99.90;;;15.92;100.00;97461.22;10399131;28;20751;-68
2023/07/01 04:46:12;;;;;;;9.02;8.13;;;15.20;99.90;;;16.18;100.00;97456.81;10395604;28;20234;-68
2023/07/01 04:51:15;;;;;;;8.65;7.82;;;15.40;99.90;;;17.51;100.00;97454.28;10397157;28;20782;-68
2023/07/01 04:56:21;;;;;;;9.48;8.15;;;16.80;99.90;;;18.97;90.58;97461.59;10399723;28;20682;-68
2023/07/01 05:01:25;;;;;;;8.05;6.95;;;17.90;99.90;;;20.13;83.00;97445.25;10388701;28;20238;-68
2023/07/01 05:06:29;;;;;;;7.15;6.53;;;18.90;99.90;;;21.34;76.31;97448.25;10393996;28;20705;-66
2023/07/01 05:11:32;;;;;;;7.05;6.35;;;19.50;99.90;;;22.20;71.92;97451.44;10394156;28;20234;-66
2023/07/01 05:16:36;;;;;;;5.88;5.35;;;20.20;99.90;;;22.79;67.85;97445.56;10398893;28;20230;-66
2023/07/01 05:21:50;;;;;;;7.20;5.03;;;20.70;99.90;;;23.31;65.17;97440.41;10395886;28;20545;-66
2023/07/01 05:26:53;;;;;;;6.53;5.88;;;21.00;99.90;;;23.55;64.85;97436.94;10390739;28;20226;-66
2023/07/01 05:31:57;;;;;;;7.15;6.53;;;21.20;99.90;;;24.02;63.69;97442.97;10392317;28;20234;-67
2023/07/01 05:37:01;;;;;;;6.53;6.03;;;21.80;99.90;;;24.27;61.52;97446.34;10393210;28;20230;-66
2023/07/01 05:42:05;;;;;;;5.68;5.05;;;21.80;99.90;;;24.34;59.34;97444.59;10394543;28;20234;-66
2023/07/01 05:47:10;;;;;;;4.85;4.45;;;21.90;99.90;;;24.61;58.91;97440.97;10389055;28;20225;-67
2023/07/01 05:52:13;;;;;;;5.10;4.60;;;22.00;99.90;;;24.67;59.34;97447.06;10386229;28;20824;-67
2023/07/01 05:57:16;;;;;;;5.13;4.63;;;22.30;99.90;;;24.94;58.45;97451.25;10394256;28;20841;-67
2023/07/01 06:02:20;;;;;;;5.88;4.65;;;22.40;99.90;;;25.28;56.21;97450.19;10390039;28;20221;-67
2023/07/01 06:07:24;;;;;;;4.40;4.00;;;22.50;99.90;;;25.48;54.37;97443.03;10397428;28;20308;-68
2023/07/01 06:12:27;;;;;;;4.93;4.10;;;22.50;99.90;;;25.64;54.44;97433.28;10391333;28;20233;-68
2023/07/01 06:17:32;;;;;;;6.25;3.60;;;22.90;99.90;;;25.91;51.59;97442.63;10392380;28;20255;-68
2023/07/01 06:22:35;;;;;;;3.78;3.45;;;23.00;99.90;;;26.05;50.88;97445.09;10390306;28;20233;-67
2023/07/01 06:27:38;;;;;;;4.00;3.30;;;23.20;99.90;;;26.23;49.32;97444.03;10396068;28;20589;-68
2023/07/01 06:32:43;;;;;;;3.70;3.40;;;23.40;99.90;;;26.37;49.55;97436.00;10389731;28;20225;-68
2023/07/01 06:37:46;;;;;;;3.70;3.40;;;23.60;99.90;;;26.70;46.77;97435.59;10384995;28;20767;-68
2023/07/01 06:42:50;;;;;;;3.80;3.40;;;24.00;99.90;;;26.99;45.71;97442.16;10388866;28;20217;-68
2023/07/01 06:47:54;;;;;;;3.65;3.35;;;24.20;98.70;;;27.52;45.61;97436.97;10391613;28;20831;-68
2023/07/01 06:52:57;;;;;;;3.55;3.20;;;24.50;98.80;;;27.43;45.01;97422.22;10393228;28;20855;-68
2023/07/01 06:58:02;;;;;;;3.30;2.97;;;24.70;97.70;;;27.59;44.18;97417.59;10399122;28;20232;-67
2023/07/01 07:03:07;;;;;;;3.60;3.25;;;24.80;96.50;;;27.87;42.84;97411.84;10404884;28;20229;-67
2023/07/01 07:08:10;;;;;;;4.00;2.83;;;25.20;94.80;;;28.04;42.89;97412.38;10402066;28;20633;-67
2023/07/01 07:13:13;;;;;;;3.70;2.67;;;25.30;94.30;;;28.27;41.27;97418.06;10401777;28;20243;-67
2023/07/01 07:18:18;;;;;;;6.13;2.92;;;25.60;93.60;;;27.88;41.78;97413.59;10396766;28;20229;-67
2023/07/01 07:23:21;;;;;;;3.25;2.90;;;25.40;92.50;;;28.13;42.26;97399.06;10399881;28;20222;-67
2023/07/01 07:28:24;;;;;;;3.72;2.78;;;25.60;93.10;;;28.27;41.26;97401.41;10397259;28;20656;-67
2023/07/01 07:33:28;;;;;;;3.22;2.92;;;25.80;92.20;;;28.08;40.93;97400.94;10395106;28;20229;-67
2023/07/01 07:38:31;;;;;;;4.40;2.70;;;25.70;91.90;;;27.90;39.34;97390.75;10395491;28;20225;-67
2023/07/01 07:43:35;;;;;;;4.35;2.65;;;25.90;90.10;;;28.12;41.50;97392.06;10394929;28;20236;-67
2023/07/01 07:48:39;;;;;;;3.20;2.78;;;26.00;91.10;;;27.97;40.47;97387.13;10397019;28;20247;-68
2023/07/01 07:53:42;;;;;;;3.15;2.60;;;26.00;90.80;;;28.46;38.91;97383.50;10405943;28;20221;-67
2023/07/01 07:58:45;;;;;;;3.30;2.33;;;26.40;88.70;;;28.73;37.95;97385.53;10401262;28;20227;-68
2023/07/01 08:03:50;;;;;;;3.30;2.30;;;26.50;86.20;;;28.72;38.67;97378.50;10406739;28;20876;-67
2023/07/01 08:08:53;;;;;;;3.00;2.25;;;26.40;87.10;;;28.80;36.09;97372.22;10402300;28;20245;-67
2023/07/01 08:13:56;;;;;;;3.05;2.40;;;26.50;83.70;;;28.88;35.54;97370.28;10406964;28;20637;-67
2023/07/01 08:19:01;;;;;;;3.40;2.50;;;26.40;82.50;;;29.06;36.37;97361.09;10403167;28;20236;-67
2023/07/01 08:24:05;;;;;;;3.63;2.45;;;26.30;84.10;;;28.89;37.35;97366.72;10403104;28;20279;-67
2023/07/01 08:29:11;;;;;;;3.55;2.47;;;26.60;84.60;;;28.73;38.65;97348.69;10402823;28;20612;-67
2023/07/01 08:34:15;;;;;;;3.38;2.85;;;26.60;85.10;;;28.17;39.15;97353.41;10403203;28;20233;-67
2023/07/01 08:39:18;;;;;;;2.35;2.15;;;26.10;85.10;;;27.97;38.83;97339.84;10404505;28;20546;-67
2023/07/01 08:44:22;;;;;;;4.22;2.65;;;26.10;86.00;;;28.24;39.16;97344.53;10401446;28;20728;-67
2023/07/01 08:49:30;;;;;;;3.83;2.70;;;26.80;84.20;;;28.36;39.60;97337.22;10401706;28;20295;-67
2023/07/01 08:54:34;;;;;;;2.92;2.72;;;26.90;85.30;;;28.48;36.67;97344.91;10404674;28;20225;-67
2023/07/01 08:59:38;;;;;;;2.97;2.20;;;27.20;79.70;;;28.06;36.88;97337.00;10396290;28;20607;-66
2023/07/01 09:04:43;;;;;;;2.65;2.45;;;27.20;77.80;;;27.33;39.48;97337.53;10404445;28;20751;-67
2023/07/01 09:09:46;;;;;;;3.58;2.47;;;26.00;82.80;;;27.26;37.89;97335.91;10403042;28;20236;-67
2023/07/01 09:15:02;;;;;;;3.67;2.70;;;26.30;80.60;;;27.40;37.60;97330.41;10404165;28;20728;-66
2023/07/01 09:20:10;;;;;;;3.08;2.47;;;26.70;78.60;;;27.20;37.50;97328.13;10400124;28;20582;-67
2023/07/01 09:25:27;;;;;;;4.53;2.70;;;26.00;79.50;;;27.14;39.20;97320.34;10403663;28;20303;-66
2023/07/01 09:30:31;;;;;;;4.75;3.08;;;26.30;81.50;;;26.95;38.82;97311.91;10403061;28;20235;-66
2023/07/01 09:35:43;;;;;;;3.10;2.80;;;26.20;79.70;;;26.30;38.95;97319.91;10401416;28;20240;-66
2023/07/01 09:40:47;;;;;;;3.05;2.75;;;25.60;79.50;;;26.41;40.47;97307.50;10401504;28;20799;-66
2023/07/01 09:45:54;;;;;;;3.05;2.85;;;25.60;81.20;;;26.46;39.71;97304.81;10396628;28;20650;-66
2023/07/01 09:51:03;;;;;;;3.22;2.90;;;25.70;81.10;;;26.63;39.19;97291.47;10399350;28;20244;-66
2023/07/01 09:56:07;;;;;;;3.67;2.90;;;25.80;80.40;;;26.69;39.05;97280.88;10396950;28;20233;-67
2023/07/01 10:01:12;;;;;;;4.13;2.90;;;25.80;79.90;;;26.94;38.31;97279.56;10396762;28;20241;-66
2023/07/01 10:06:16;;;;;;;3.38;2.80;;;26.30;78.00;;;27.21;37.23;97274.75;10396417;28;20225;-67
2023/07/01 10:11:22;;;;;;;4.07;2.60;;;26.50;76.70;;;27.26;37.34;97272.03;10389189;28;20225;-66
2023/07/01 10:16:25;;;;;;;4.03;2.70;;;26.30;77.10;;;27.09;36.94;97270.56;10398322;28;20225;-67
2023/07/01 10:21:32;;;;;;;4.80;2.70;;;26.10;76.90;;;26.96;38.33;97264.69;10390266;28;20336;-66
2023/07/01 10:26:46;;;;;;;3.22;2.92;;;26.00;78.40;;;26.99;36.31;97262.91;10396620;28;20229;-66
2023/07/01 10:32:29;;;;;;;3.10;2.33;;;26.00;75.50;;;26.87;35.93;97251.72;10395631;28;20228;-66
2023/07/01 10:37:34;;;;;;;2.53;2.35;;;25.90;74.40;;;26.71;34.81;97243.25;10406723;28;20383;-66
2023/07/01 10:42:38;;;;;;;7.32;2.70;;;25.80;72.20;;;26.34;35.40;97232.47;10403132;28;20611;-66
2023/07/01 10:47:43;;;;;;;5.13;2.42;;;25.70;72.30;;;26.33;35.68;97232.50;10410330;28;20398;-66
2023/07/01 10:53:03;;;;;;;2.35;2.15;;;25.70;72.40;;;26.20;34.72;97231.81;10407331;28;20248;-66
2023/07/01 10:58:22;;;;;;;2.55;2.30;;;25.50;70.20;;;26.10;35.62;97222.34;10407578;28;20724;-66
2023/07/01 11:03:56;;;;;;;4.13;2.17;;;25.50;72.60;;;26.16;35.45;97209.19;10408676;28;20320;-66
2023/07/01 11:09:01;;;;;;;2.70;2.28;;;25.60;71.10;;;26.43;34.76;97213.97;10402015;28;20225;-66
2023/07/01 11:14:08;;;;;;;3.47;2.60;;;25.90;70.30;;;26.31;35.01;97206.31;10406037;28;20252;-66
2023/07/01 11:19:16;;;;;;;2.50;2.30;;;25.70;70.00;;;26.34;35.06;97201.03;10410174;28;20234;-65
2023/07/01 11:24:24;;;;;;;2.95;2.30;;;25.60;70.30;;;26.42;33.55;97193.03;10403992;28;20636;-66
2023/07/01 11:29:27;;;;;;;2.40;2.20;;;25.70;67.90;;;26.45;34.14;97195.63;10408144;28;20229;-66
2023/07/01 11:34:30;;;;;;;2.65;2.17;;;25.80;69.10;;;26.39;35.43;97188.72;10409114;28;20229;-65
2023/07/01 11:39:44;;;;;;;3.03;2.40;;;25.80;70.40;;;26.49;35.49;97189.41;10407994;28;20225;-65
2023/07/01 11:44:47;;;;;;;2.47;2.20;;;25.90;71.20;;;26.83;34.51;97179.22;10402241;28;20319;-66
2023/07/01 11:49:51;;;;;;;3.47;2.28;;;26.10;69.80;;;26.86;33.56;97184.41;10408192;28;20234;-66
2023/07/01 11:54:55;;;;;;;3.38;2.80;;;26.10;68.50;;;26.99;34.03;97185.06;10403107;28;20325;-66
2023/07/01 12:00:01;;;;;;;3.05;2.65;;;26.30;69.40;;;27.04;31.47;97174.44;10395908;28;20280;-66
2023/07/01 12:05:05;;;;;;;4.68;2.80;;;26.40;64.30;;;26.88;31.27;97171.28;10399064;28;20701;-66
2023/07/01 12:10:21;;;;;;;3.67;2.97;;;26.20;64.30;;;26.96;31.91;97172.00;10405857;28;20614;-66
2023/07/01 12:15:24;;;;;;;3.00;2.80;;;26.30;64.60;;;27.45;30.99;97155.28;10406162;28;20233;-66
2023/07/01 12:20:27;;;;;;;3.40;3.10;;;26.80;63.30;;;27.47;30.13;97160.47;10405126;28;20259;-66
2023/07/01 12:25:31;;;;;;;3.83;3.38;;;26.80;61.60;;;27.62;29.54;97150.53;10402366;28;20312;-66
2023/07/01 12:30:35;;;;;;;4.55;3.70;;;27.00;60.60;;;27.66;29.12;97150.47;10400843;28;20625;-66
2023/07/01 12:35:41;;;;;;;4.22;3.83;;;26.90;60.00;;;27.78;29.36;97145.78;10403950;28;20225;-66
2023/07/01 12:40:48;;;;;;;4.30;3.90;;;27.00;60.40;;;27.88;29.19;97156.97;10401998;28;20520;-66
2023/07/01 12:45:51;;;;;;;4.78;3.78;;;26.90;60.10;;;27.77;29.49;97154.56;10403908;28;20612;-66
2023/07/01 12:50:55;;;;;;;4.90;3.83;;;26.80;61.20;;;27.78;30.46;97155.41;10398782;28;20236;-66
2023/07/01 12:55:59;;;;;;;4.60;3.95;;;26.90;62.90;;;27.59;31.20;97149.75;10404688;28;20233;-66
2023/07/01 13:01:02;;;;;;;4.47;4.05;;;26.50;63.80;;;27.66;31.25;97148.69;10404514;28;20359;-66
2023/07/01 13:06:25;;;;;;;4.20;3.80;;;26.70;63.70;;;27.66;31.09;97155.72;10405317;28;20347;-66
2023/07/01 13:11:33;;;;;;;4.05;3.65;;;26.70;63.30;;;27.70;30.46;97153.00;10398147;28;20236;-66
2023/07/01 13:16:39;;;;;;;3.95;3.30;;;26.60;63.50;;;27.61;32.72;97145.28;10400334;28;20286;-66
2023/07/01 13:21:44;;;;;;;3.97;3.58;;;26.70;65.80;;;27.59;32.95;97149.75;10397804;28;20222;-65
2023/07/01 13:26:49;;;;;;;3.80;2.85;;;26.40;66.60;;;27.65;33.35;97148.75;10397482;28;20221;-65
2023/07/01 13:31:56;;;;;;;3.50;3.20;;;26.40;67.70;;;27.63;34.13;97151.38;10401067;28;20287;-65
2023/07/01 13:37:00;;;;;;;3.30;3.00;;;26.50;69.40;;;27.52;32.15;97150.75;10403375;28;20239;-65
2023/07/01 13:42:05;;;;;;;3.60;3.30;;;26.40;65.90;;;27.23;34.49;97148.75;10403199;28;20229;-66
2023/07/01 13:47:11;;;;;;;3.10;2.85;;;26.20;69.20;;;26.88;34.39;97161.66;10403585;28;20675;-65
2023/07/01 13:52:14;;;;;;;2.78;2.58;;;25.90;68.60;;;26.59;35.25;97156.09;10399117;28;20253;-65
2023/07/01 13:57:28;;;;;;;3.92;2.50;;;25.60;70.30;;;26.58;35.24;97151.72;10401624;28;20611;-65
2023/07/01 14:02:31;;;;;;;2.60;2.40;;;25.40;70.40;;;26.28;35.62;97151.34;10396550;28;20229;-65
2023/07/01 14:07:35;;;;;;;2.67;2.05;;;25.10;70.80;;;26.26;37.00;97155.72;10402069;28;20260;-65
2023/07/01 14:12:39;;;;;;;2.38;2.00;;;25.00;73.80;;;26.00;36.96;97145.66;10393234;22;20229;-65
2023/07/01 14:17:46;;;;;;;2.00;1.88;;;24.80;73.60;;;26.02;38.00;97144.75;10357938;28;20229;-65
2023/07/01 14:22:51;;;;;;;3.38;2.05;;;24.80;74.90;;;26.06;37.67;97135.94;10361059;28;20221;-64
2023/07/01 14:27:56;;;;;;;2.22;1.90;;;25.00;73.70;;;26.14;38.10;97141.06;10363333;28;20301;-65
2023/07/01 14:32:59;;;;;;;1.80;1.63;;;25.30;74.30;;;25.99;37.62;97134.34;10352122;28;20735;-65
2023/07/01 14:38:02;;;;;;;2.03;1.60;;;25.10;73.60;;;25.79;38.26;97139.00;10354911;28;20636;-68
2023/07/01 14:43:10;;;;;;;2.30;1.60;;;24.90;74.60;;;25.98;38.92;97121.25;10367732;28;20252;-65
2023/07/01 14:48:13;;;;;;;2.95;1.30;;;25.00;75.90;;;25.88;38.64;97125.78;10358580;28;20252;-65
2023/07/01 14:53:17;;;;;;;2.00;1.60;;;25.00;75.50;;;25.64;39.93;97132.22;10361884;28;20229;-65
2023/07/01 14:58:21;;;;;;;2.20;1.60;;;24.70;77.60;;;25.53;40.27;97127.16;10366625;28;20747;-65
2023/07/01 15:03:24;;;;;;;1.15;0.90;;;24.70;77.80;;;25.55;41.38;97128.00;10360974;28;20243;-65
2023/07/01 15:08:28;;;;;;;1.15;1.05;;;24.70;79.10;;;25.48;41.63;97134.19;10361756;28;20318;-66
2023/07/01 15:13:33;;;;;;;1.13;1.02;;;24.50;80.30;;;25.26;42.41;97137.97;10362155;28;20238;-66
2023/07/01 15:18:38;;;;;;;1.10;1.00;;;24.30;81.40;;;25.31;42.48;97139.66;10357742;28;20222;-65
2023/07/01 15:23:41;;;;;;;1.17;1.10;;;24.30;81.10;;;25.24;43.51;97138.00;10367745;28;20253;-68
2023/07/01 15:28:45;;;;;;;1.10;1.00;;;24.20;83.70;;;25.34;43.25;97128.28;10359186;28;20717;-65
2023/07/01 15:33:49;;;;;;;1.55;1.45;;;24.30;82.90;;;25.20;43.97;97133.69;10371629;28;20249;-66
2023/07/01 15:38:52;;;;;;;2.13;1.35;;;24.10;84.00;;;25.28;43.58;97125.75;10367605;28;20701;-66
2023/07/01 15:43:56;;;;;;;1.63;1.10;;;24.10;83.70;;;25.56;43.03;97127.09;10370264;28;20766;-66
2023/07/01 15:48:59;;;;;;;2.15;1.40;;;24.50;83.10;;;25.21;43.86;97139.78;10367176;28;20230;-66
2023/07/01 15:54:02;;;;;;;1.50;1.40;;;24.10;83.80;;;24.99;44.04;97140.03;10366507;28;20236;-68
2023/07/01 15:59:07;;;;;;;1.77;1.42;;;23.90;84.40;;;24.75;44.34;97135.91;10365368;28;20238;-66
2023/07/01 16:04:10;;;;;;;1.60;1.50;;;23.70;85.00;;;24.48;45.47;97137.06;10367609;28;20282;-66
2023/07/01 16:10:11;;;;;;;3.13;1.58;;;23.40;86.50;;;24.21;46.38;97141.66;10365834;28;20234;-65
2023/07/01 16:15:17;;;;;;;1.92;1.70;;;23.40;87.60;;;24.23;46.65;97137.25;10277466;28;20235;-65
2023/07/01 16:21:04;;;;;;;2.20;2.00;;;23.20;88.10;;;24.19;45.78;97137.31;10345870;28;20345;-66
2023/07/01 16:26:09;;;;;;;1.85;1.65;;;23.30;87.10;;;23.99;47.87;97145.31;10368556;28;20364;-66
2023/07/01 16:31:22;;;;;;;2.72;1.73;;;23.10;89.60;;;23.79;47.83;97130.66;10362179;28;20238;-67
2023/07/01 16:36:30;;;;;;;1.95;1.85;;;23.10;89.30;;;23.93;48.30;97138.38;10360261;28;20593;-65
2023/07/01 16:41:34;;;;;;;2.45;1.75;;;22.90;90.40;;;24.02;48.85;97142.66;10367578;28;20237;-65
2023/07/01 16:46:40;;;;;;;1.90;1.50;;;23.10;90.90;;;23.88;50.02;97144.53;10356535;28;20233;-65
2023/07/01 16:51:43;;;;;;;1.65;1.55;;;23.00;91.90;;;23.71;51.08;97152.47;10364286;28;21009;-66
2023/07/01 16:56:56;;;;;;;1.55;1.35;;;22.70;92.70;;;23.53;52.32;97150.81;10364081;28;20246;-65
2023/07/01 17:02:01;;;;;;;1.75;1.63;;;22.60;93.50;;;22.86;60.69;97176.25;10365373;28;20732;-65
2023/07/01 17:07:09;;;;;;;3.80;1.83;;;22.10;99.10;;;21.93;75.37;97195.38;10362198;28;20233;-65
2023/07/01 17:12:26;;;;;;;3.10;1.80;;;21.20;99.90;;;20.96;81.80;97212.31;10351583;28;20230;-65
2023/07/01 17:17:43;;;;;;;2.00;1.90;;;20.30;99.90;;;20.10;90.93;97211.66;10362772;28;20230;-65
2023/07/01 17:22:46;;;;;;;2.10;1.90;;;19.60;99.90;;;19.72;96.72;97204.38;10356485;28;20389;-65
2023/07/01 17:27:49;;;;;;;2.85;2.65;;;19.30;99.90;;;19.68;99.76;97206.91;10351588;28;20753;-65
2023/07/01 17:32:54;;;;;;;2.60;2.40;;;19.10;99.90;;;19.41;100.00;97207.47;10351149;28;20234;-66
2023/07/01 17:37:57;;;;;;;3.15;2.60;;;18.90;99.90;;;19.32;100.00;97216.00;10358037;28;20245;-66
2023/07/01 17:43:00;;;;;;;2.60;2.40;;;18.80;99.90;;;19.18;100.00;97215.81;10360062;28;20258;-66
2023/07/01 17:48:05;;;;;;;3.00;2.80;;;18.60;99.90;;;19.18;100.00;97213.22;10352537;28;20661;-66
2023/07/01 17:53:08;;;;;;;2.50;2.30;;;18.60;99.90;;;19.24;100.00;97222.81;10351582;28;20238;-66
2023/07/01 17:58:11;;;;;;;4.53;3.88;;;18.60;99.90;;;19.44;100.00;97223.06;10347471;28;20615;-66
2023/07/01 18:03:15;;;;;;;2.92;2.70;;;18.70;99.90;;;19.34;100.00;97217.75;10345553;28;20738;-66
2023/07/01 18:08:19;;;;;;;2.17;1.98;;;18.60;99.90;;;19.21;100.00;97223.63;10348265;28;20234;-66
2023/07/01 18:13:22;;;;;;;2.83;2.33;;;18.60;99.90;;;19.00;100.00;97223.34;10345742;28;20231;-66
2023/07/01 18:18:27;;;;;;;2.70;2.50;;;18.40;99.90;;;19.16;100.00;97232.19;10348569;28;20337;-66
2023/07/01 18:23:30;;;;;;;2.75;2.55;;;18.50;99.90;;;19.01;100.00;97230.28;10353530;28;20230;-66
2023/07/01 18:28:33;;;;;;;3.97;2.60;;;18.40;99.90;;;18.95;100.00;97230.19;10345422;28;20236;-66
2023/07/01 18:33:38;;;;;;;5.05;3.42;;;18.30;99.90;;;18.76;100.00;97222.16;10349808;28;20237;-66
2023/07/01 18:38:41;;;;;;;3.97;3.10;;;18.20;99.90;;;18.64;100.00;97227.13;10351402;28;20226;-66
2023/07/01 18:43:44;;;;;;;3.33;3.03;;;18.10;99.90;;;18.62;100.00;97231.41;10350965;28;20238;-66
2023/07/01 18:48:49;;;;;;;4.20;3.90;;;18.10;99.90;;;18.62;100.00;97227.09;10354336;28;20226;-66
2023/07/01 18:53:52;;;;;;;5.18;4.78;;;18.00;99.90;;;18.65;100.00;97227.13;10356652;28;20230;-66
2023/07/01 18:58:56;;;;;;;4.13;3.83;;;18.00;99.90;;;18.64;100.00;97227.13;10356971;28;20316;-66
2023/07/01 19:04:01;;;;;;;4.50;4.05;;;18.00;99.90;;;18.61;100.00;97234.84;10355435;28;20231;-66
2023/07/01 19:09:04;;;;;;;3.72;3.42;;;18.00;99.90;;;18.53;100.00;97236.44;10358137;28;20953;-66
2023/07/01 19:14:07;;;;;;;3.83;3.20;;;17.90;99.90;;;18.52;100.00;97230.41;10347894;28;20309;-66
2023/07/01 19:19:17;;;;;;;6.25;4.95;;;17.90;99.90;;;18.59;100.00;97237.38;10348806;28;21689;-65
2023/07/01 19:24:22;;;;;;;5.82;5.32;;;17.90;99.90;;;18.57;100.00;97227.84;10354983;28;20239;-66
2023/07/01 19:29:28;;;;;;;4.38;3.97;;;17.90;99.90;;;18.65;100.00;97226.25;10360132;28;20240;-66
2023/07/01 19:34:33;;;;;;;4.18;3.25;;;18.00;99.90;;;18.70;100.00;97232.38;10353604;28;20231;-66
2023/07/01 19:39:36;;;;;;;3.35;3.05;;;17.90;99.90;;;18.56;100.00;97233.91;10350615;28;20234;-66
2023/07/01 19:44:39;;;;;;;2.97;2.65;;;17.90;99.90;;;18.67;100.00;97230.63;10358525;28;20304;-66
2023/07/01 19:49:44;;;;;;;3.17;2.83;;;17.90;99.90;;;18.63;100.00;97233.16;10352831;28;20680;-66
2023/07/01 19:54:47;;;;;;;3.28;3.00;;;17.90;99.90;;;18.59;100.00;97236.53;10356936;28;20233;-66
2023/07/01 19:59:50;;;;;;;3.13;2.88;;;17.90;99.90;;;18.54;100.00;97248.53;10358002;28;20226;-66
2023/07/01 20:04:55;;;;;;;3.30;3.10;;;17.90;99.90;;;18.55;100.00;97247.69;10349436;28;20237;-66
2023/07/01 20:09:58;;;;;;;3.25;3.00;;;17.80;99.90;;;18.62;100.00;97249.50;10339136;28;20237;-66
2023/07/01 20:15:01;;;;;;;2.60;2.50;;;17.90;99.90;;;18.56;100.00;97254.59;10353490;28;20226;-66
2023/07/01 20:20:08;;;;;;;2.75;2.47;;;17.80;99.90;;;18.60;100.00;97249.50;10349905;28;20226;-66
2023/07/01 20:25:11;;;;;;;3.35;2.88;;;17.90;99.90;;;18.65;100.00;97257.31;10350708;28;20222;-66
2023/07/01 20:30:15;;;;;;;3.20;2.90;;;17.90;99.90;;;18.57;100.00;97264.09;10349416;28;20238;-65
2023/07/01 20:35:20;;;;;;;2.95;2.75;;;17.80;99.90;;;18.61;100.00;97252.97;10359879;28;20648;-66
2023/07/01 20:40:25;;;;;;;2.80;2.60;;;17.90;99.90;;;18.55;100.00;97278.75;10359906;28;20245;-65
2023/07/01 20:45:28;;;;;;;3.15;2.85;;;17.80;99.90;;;18.59;100.00;97270.19;10355875;28;20226;-66
2023/07/01 20:50:33;;;;;;;3.17;2.88;;;17.90;99.90;;;18.57;100.00;97266.69;10355745;28;20226;-66
2023/07/01 20:55:36;;;;;;;3.33;2.75;;;17.90;99.90;;;18.61;100.00;97266.78;10359311;28;20233;-66
2023/07/01 21:00:39;;;;;;;2.80;2.60;;;17.80;99.90;;;18.57;100.00;97272.75;10354509;28;20237;-65